sensor_id;sensor_type;location;lat;lon;timestamp;temperature;humidity
65707;SHT31;52423;43.512;5.220;2022-08-21T00:00:12;24.15;57.37
65707;SHT31;52423;43.512;5.220;2022-08-21T00:02:45;24.11;56.70
65707;SHT31;52423;43.512;5.220;2022-08-21T00:05:11;24.21;56.75
65707;SHT31;52423;43.512;5.220;2022-08-21T00:07:37;24.11;57.75
65707;SHT31;52423;43.512;5.220;2022-08-21T00:10:04;24.08;56.68
65707;SHT31;52423;43.512;5.220;2022-08-21T00:12:30;24.09;57.17
65707;SHT31;52423;43.512;5.220;2022-08-21T00:14:57;24.01;56.94
65707;SHT31;52423;43.512;5.220;2022-08-21T00:17:22;24.00;57.22
65707;SHT31;52423;43.512;5.220;2022-08-21T00:19:48;23.92;57.35
65707;SHT31;52423;43.512;5.220;2022-08-21T00:22:14;23.92;57.54
65707;SHT31;52423;43.512;5.220;2022-08-21T00:24:40;23.94;57.07
65707;SHT31;52423;43.512;5.220;2022-08-21T00:27:06;24.05;57.15
65707;SHT31;52423;43.512;5.220;2022-08-21T00:29:31;24.00;57.31
65707;SHT31;52423;43.512;5.220;2022-08-21T00:31:57;24.05;56.87
65707;SHT31;52423;43.512;5.220;2022-08-21T00:34:24;24.14;56.22
65707;SHT31;52423;43.512;5.220;2022-08-21T00:36:50;24.08;57.07
65707;SHT31;52423;43.512;5.220;2022-08-21T00:39:16;24.06;57.00
65707;SHT31;52423;43.512;5.220;2022-08-21T00:41:42;24.00;57.83
65707;SHT31;52423;43.512;5.220;2022-08-21T00:44:10;23.92;57.21
65707;SHT31;52423;43.512;5.220;2022-08-21T00:46:37;23.91;57.68
65707;SHT31;52423;43.512;5.220;2022-08-21T00:49:04;23.85;57.60
65707;SHT31;52423;43.512;5.220;2022-08-21T00:51:44;23.86;57.62
65707;SHT31;52423;43.512;5.220;2022-08-21T00:54:11;23.81;57.62
65707;SHT31;52423;43.512;5.220;2022-08-21T00:56:37;23.75;58.00
65707;SHT31;52423;43.512;5.220;2022-08-21T00:59:03;23.74;57.99
65707;SHT31;52423;43.512;5.220;2022-08-21T01:01:30;23.74;58.36
65707;SHT31;52423;43.512;5.220;2022-08-21T01:03:56;23.70;58.22
65707;SHT31;52423;43.512;5.220;2022-08-21T01:06:22;23.68;58.17
65707;SHT31;52423;43.512;5.220;2022-08-21T01:08:47;23.75;58.14
65707;SHT31;52423;43.512;5.220;2022-08-21T01:11:15;23.74;57.74
65707;SHT31;52423;43.512;5.220;2022-08-21T01:13:41;23.70;58.38
65707;SHT31;52423;43.512;5.220;2022-08-21T01:16:13;23.65;58.32
65707;SHT31;52423;43.512;5.220;2022-08-21T01:18:40;23.57;58.20
65707;SHT31;52423;43.512;5.220;2022-08-21T01:21:09;23.68;57.86
65707;SHT31;52423;43.512;5.220;2022-08-21T01:23:38;23.71;58.30
65707;SHT31;52423;43.512;5.220;2022-08-21T01:26:05;23.77;57.42
65707;SHT31;52423;43.512;5.220;2022-08-21T01:28:36;23.79;57.12
65707;SHT31;52423;43.512;5.220;2022-08-21T01:31:05;23.81;57.35
65707;SHT31;52423;43.512;5.220;2022-08-21T01:33:31;23.88;56.80
65707;SHT31;52423;43.512;5.220;2022-08-21T01:35:57;23.73;57.21
65707;SHT31;52423;43.512;5.220;2022-08-21T01:38:23;23.75;57.25
65707;SHT31;52423;43.512;5.220;2022-08-21T01:40:49;23.74;57.53
65707;SHT31;52423;43.512;5.220;2022-08-21T01:43:15;23.61;57.52
65707;SHT31;52423;43.512;5.220;2022-08-21T01:45:41;23.63;57.53
65707;SHT31;52423;43.512;5.220;2022-08-21T01:48:06;23.60;57.40
65707;SHT31;52423;43.512;5.220;2022-08-21T01:50:32;23.53;57.49
65707;SHT31;52423;43.512;5.220;2022-08-21T01:52:58;23.44;58.54
65707;SHT31;52423;43.512;5.220;2022-08-21T01:55:23;23.43;57.69
65707;SHT31;52423;43.512;5.220;2022-08-21T01:57:49;23.28;58.60
65707;SHT31;52423;43.512;5.220;2022-08-21T02:00:19;23.24;58.89
65707;SHT31;52423;43.512;5.220;2022-08-21T02:02:45;23.28;58.53
65707;SHT31;52423;43.512;5.220;2022-08-21T02:05:11;23.24;58.16
65707;SHT31;52423;43.512;5.220;2022-08-21T02:07:44;23.39;57.87
65707;SHT31;52423;43.512;5.220;2022-08-21T02:10:12;23.39;57.85
65707;SHT31;52423;43.512;5.220;2022-08-21T02:12:38;23.42;58.26
65707;SHT31;52423;43.512;5.220;2022-08-21T02:15:05;23.43;57.91
65707;SHT31;52423;43.512;5.220;2022-08-21T02:17:57;23.44;57.37
65707;SHT31;52423;43.512;5.220;2022-08-21T02:20:30;23.47;57.30
65707;SHT31;52423;43.512;5.220;2022-08-21T02:22:56;23.46;57.82
65707;SHT31;52423;43.512;5.220;2022-08-21T02:25:23;23.33;58.28
65707;SHT31;52423;43.512;5.220;2022-08-21T02:27:49;23.34;57.05
65707;SHT31;52423;43.512;5.220;2022-08-21T02:30:26;23.34;56.62
65707;SHT31;52423;43.512;5.220;2022-08-21T02:32:52;23.31;56.80
65707;SHT31;52423;43.512;5.220;2022-08-21T02:35:18;23.33;57.63
65707;SHT31;52423;43.512;5.220;2022-08-21T02:38:08;23.26;56.91
65707;SHT31;52423;43.512;5.220;2022-08-21T02:40:35;23.19;58.02
65707;SHT31;52423;43.512;5.220;2022-08-21T02:43:04;23.17;58.44
65707;SHT31;52423;43.512;5.220;2022-08-21T02:45:31;23.17;57.37
65707;SHT31;52423;43.512;5.220;2022-08-21T02:48:06;23.20;57.18
65707;SHT31;52423;43.512;5.220;2022-08-21T02:50:47;23.06;57.52
65707;SHT31;52423;43.512;5.220;2022-08-21T02:53:15;23.02;58.49
65707;SHT31;52423;43.512;5.220;2022-08-21T02:55:44;23.12;56.97
65707;SHT31;52423;43.512;5.220;2022-08-21T02:58:10;23.07;57.00
65707;SHT31;52423;43.512;5.220;2022-08-21T03:00:38;23.17;56.58
65707;SHT31;52423;43.512;5.220;2022-08-21T03:03:05;23.10;56.64
65707;SHT31;52423;43.512;5.220;2022-08-21T03:05:31;23.00;56.72
65707;SHT31;52423;43.512;5.220;2022-08-21T03:07:59;22.93;56.87
65707;SHT31;52423;43.512;5.220;2022-08-21T03:10:25;22.95;56.68
65707;SHT31;52423;43.512;5.220;2022-08-21T03:12:51;22.99;56.37
65707;SHT31;52423;43.512;5.220;2022-08-21T03:15:19;22.99;56.30
65707;SHT31;52423;43.512;5.220;2022-08-21T03:17:46;22.96;56.03
65707;SHT31;52423;43.512;5.220;2022-08-21T03:20:14;23.02;56.07
65707;SHT31;52423;43.512;5.220;2022-08-21T03:22:40;22.98;56.12
65707;SHT31;52423;43.512;5.220;2022-08-21T03:25:07;22.92;56.12
65707;SHT31;52423;43.512;5.220;2022-08-21T03:27:34;22.89;56.11
65707;SHT31;52423;43.512;5.220;2022-08-21T03:30:00;22.99;56.10
65707;SHT31;52423;43.512;5.220;2022-08-21T03:32:26;23.00;56.47
65707;SHT31;52423;43.512;5.220;2022-08-21T03:34:51;22.95;56.54
65707;SHT31;52423;43.512;5.220;2022-08-21T03:37:17;23.06;56.09
65707;SHT31;52423;43.512;5.220;2022-08-21T03:39:44;23.10;56.23
65707;SHT31;52423;43.512;5.220;2022-08-21T03:42:10;23.10;56.20
65707;SHT31;52423;43.512;5.220;2022-08-21T03:44:37;22.95;56.48
65707;SHT31;52423;43.512;5.220;2022-08-21T03:47:03;23.03;55.99
65707;SHT31;52423;43.512;5.220;2022-08-21T03:49:29;22.98;56.28
65707;SHT31;52423;43.512;5.220;2022-08-21T03:51:54;22.98;55.83
65707;SHT31;52423;43.512;5.220;2022-08-21T03:54:20;22.81;56.76
65707;SHT31;52423;43.512;5.220;2022-08-21T03:56:46;22.82;57.20
65707;SHT31;52423;43.512;5.220;2022-08-21T03:59:12;22.82;56.28
65707;SHT31;52423;43.512;5.220;2022-08-21T04:01:38;22.86;55.60
65707;SHT31;52423;43.512;5.220;2022-08-21T04:04:05;22.85;56.31
65707;SHT31;52423;43.512;5.220;2022-08-21T04:06:32;22.76;56.13
65707;SHT31;52423;43.512;5.220;2022-08-21T04:08:58;22.68;56.60
65707;SHT31;52423;43.512;5.220;2022-08-21T04:11:24;22.61;57.27
65707;SHT31;52423;43.512;5.220;2022-08-21T04:13:50;22.68;57.30
65707;SHT31;52423;43.512;5.220;2022-08-21T04:16:16;22.47;58.70
65707;SHT31;52423;43.512;5.220;2022-08-21T04:18:42;22.56;58.46
65707;SHT31;52423;43.512;5.220;2022-08-21T04:21:09;22.49;58.75
65707;SHT31;52423;43.512;5.220;2022-08-21T04:23:36;22.28;59.13
65707;SHT31;52423;43.512;5.220;2022-08-21T04:26:02;22.44;59.11
65707;SHT31;52423;43.512;5.220;2022-08-21T04:28:28;22.22;59.72
65707;SHT31;52423;43.512;5.220;2022-08-21T04:30:54;22.30;59.46
65707;SHT31;52423;43.512;5.220;2022-08-21T04:33:21;22.33;60.41
65707;SHT31;52423;43.512;5.220;2022-08-21T04:35:48;22.21;59.66
65707;SHT31;52423;43.512;5.220;2022-08-21T04:38:14;22.17;59.92
65707;SHT31;52423;43.512;5.220;2022-08-21T04:40:40;22.28;58.42
65707;SHT31;52423;43.512;5.220;2022-08-21T04:43:09;22.24;58.14
65707;SHT31;52423;43.512;5.220;2022-08-21T04:45:43;22.05;58.98
65707;SHT31;52423;43.512;5.220;2022-08-21T04:48:11;22.13;58.86
65707;SHT31;52423;43.512;5.220;2022-08-21T04:50:53;22.25;57.98
65707;SHT31;52423;43.512;5.220;2022-08-21T04:53:23;22.20;57.58
65707;SHT31;52423;43.512;5.220;2022-08-21T04:55:50;22.18;57.71
65707;SHT31;52423;43.512;5.220;2022-08-21T04:58:20;22.14;57.66
65707;SHT31;52423;43.512;5.220;2022-08-21T05:00:46;22.15;58.30
65707;SHT31;52423;43.512;5.220;2022-08-21T05:03:14;22.08;57.52
65707;SHT31;52423;43.512;5.220;2022-08-21T05:05:42;22.11;57.98
65707;SHT31;52423;43.512;5.220;2022-08-21T05:08:12;21.92;58.07
65707;SHT31;52423;43.512;5.220;2022-08-21T05:10:40;22.00;57.66
65707;SHT31;52423;43.512;5.220;2022-08-21T05:13:06;22.00;58.34
65707;SHT31;52423;43.512;5.220;2022-08-21T05:15:32;21.93;58.02
65707;SHT31;52423;43.512;5.220;2022-08-21T05:17:58;21.93;58.05
65707;SHT31;52423;43.512;5.220;2022-08-21T05:20:23;21.90;58.02
65707;SHT31;52423;43.512;5.220;2022-08-21T05:22:49;21.92;57.89
65707;SHT31;52423;43.512;5.220;2022-08-21T05:25:16;22.03;57.27
65707;SHT31;52423;43.512;5.220;2022-08-21T05:27:41;21.90;57.95
65707;SHT31;52423;43.512;5.220;2022-08-21T05:30:08;22.03;57.16
65707;SHT31;52423;43.512;5.220;2022-08-21T05:32:35;22.00;57.49
65707;SHT31;52423;43.512;5.220;2022-08-21T05:35:03;22.00;57.01
65707;SHT31;52423;43.512;5.220;2022-08-21T05:37:29;22.00;56.95
65707;SHT31;52423;43.512;5.220;2022-08-21T05:39:54;22.08;56.47
65707;SHT31;52423;43.512;5.220;2022-08-21T05:42:20;22.07;56.66
65707;SHT31;52423;43.512;5.220;2022-08-21T05:44:46;22.14;56.28
65707;SHT31;52423;43.512;5.220;2022-08-21T05:47:12;22.15;56.43
65707;SHT31;52423;43.512;5.220;2022-08-21T05:49:37;22.18;56.46
65707;SHT31;52423;43.512;5.220;2022-08-21T05:52:04;22.18;56.49
65707;SHT31;52423;43.512;5.220;2022-08-21T05:54:30;22.14;56.18
65707;SHT31;52423;43.512;5.220;2022-08-21T05:56:56;22.15;56.47
65707;SHT31;52423;43.512;5.220;2022-08-21T05:59:23;22.18;56.35
65707;SHT31;52423;43.512;5.220;2022-08-21T06:01:49;22.21;56.32
65707;SHT31;52423;43.512;5.220;2022-08-21T06:04:14;22.17;56.63
65707;SHT31;52423;43.512;5.220;2022-08-21T06:06:40;22.27;56.53
65707;SHT31;52423;43.512;5.220;2022-08-21T06:09:06;22.28;56.15
65707;SHT31;52423;43.512;5.220;2022-08-21T06:11:32;22.31;56.14
65707;SHT31;52423;43.512;5.220;2022-08-21T06:13:58;22.35;56.02
65707;SHT31;52423;43.512;5.220;2022-08-21T06:16:24;22.28;57.40
65707;SHT31;52423;43.512;5.220;2022-08-21T06:18:50;22.21;57.52
65707;SHT31;52423;43.512;5.220;2022-08-21T06:21:16;22.22;56.94
65707;SHT31;52423;43.512;5.220;2022-08-21T06:23:42;22.42;56.53
65707;SHT31;52423;43.512;5.220;2022-08-21T06:26:10;22.48;56.21
65707;SHT31;52423;43.512;5.220;2022-08-21T06:28:36;22.56;56.09
65707;SHT31;52423;43.512;5.220;2022-08-21T06:31:11;22.49;56.09
65707;SHT31;52423;43.512;5.220;2022-08-21T06:33:37;22.52;56.62
65707;SHT31;52423;43.512;5.220;2022-08-21T06:36:03;22.54;56.29
65707;SHT31;52423;43.512;5.220;2022-08-21T06:38:29;22.68;56.34
65707;SHT31;52423;43.512;5.220;2022-08-21T06:40:54;22.68;56.31
65707;SHT31;52423;43.512;5.220;2022-08-21T06:43:20;22.77;56.45
65707;SHT31;52423;43.512;5.220;2022-08-21T06:45:46;22.89;55.18
65707;SHT31;52423;43.512;5.220;2022-08-21T06:48:11;22.99;55.85
65707;SHT31;52423;43.512;5.220;2022-08-21T06:50:37;22.89;54.90
65707;SHT31;52423;43.512;5.220;2022-08-21T06:53:07;23.00;54.81
65707;SHT31;52423;43.512;5.220;2022-08-21T06:55:33;23.16;53.75
65707;SHT31;52423;43.512;5.220;2022-08-21T06:58:00;23.20;53.98
65707;SHT31;52423;43.512;5.220;2022-08-21T07:00:26;23.13;54.18
65707;SHT31;52423;43.512;5.220;2022-08-21T07:02:52;23.10;54.18
65707;SHT31;52423;43.512;5.220;2022-08-21T07:05:18;23.12;54.75
65707;SHT31;52423;43.512;5.220;2022-08-21T07:07:44;23.26;53.63
65707;SHT31;52423;43.512;5.220;2022-08-21T07:10:10;23.42;53.49
65707;SHT31;52423;43.512;5.220;2022-08-21T07:12:36;23.49;53.77
65707;SHT31;52423;43.512;5.220;2022-08-21T07:15:02;23.63;52.89
65707;SHT31;52423;43.512;5.220;2022-08-21T07:17:28;23.74;51.98
65707;SHT31;52423;43.512;5.220;2022-08-21T07:19:54;23.73;52.52
65707;SHT31;52423;43.512;5.220;2022-08-21T07:22:20;23.68;53.05
65707;SHT31;52423;43.512;5.220;2022-08-21T07:24:46;23.75;52.85
65707;SHT31;52423;43.512;5.220;2022-08-21T07:27:12;23.84;51.89
65707;SHT31;52423;43.512;5.220;2022-08-21T07:29:38;23.92;52.52
65707;SHT31;52423;43.512;5.220;2022-08-21T07:32:04;24.00;52.03
65707;SHT31;52423;43.512;5.220;2022-08-21T07:34:30;24.08;51.82
65707;SHT31;52423;43.512;5.220;2022-08-21T07:36:56;24.09;51.87
65707;SHT31;52423;43.512;5.220;2022-08-21T07:39:22;24.11;51.78
65707;SHT31;52423;43.512;5.220;2022-08-21T07:41:48;24.28;50.48
65707;SHT31;52423;43.512;5.220;2022-08-21T07:44:13;24.37;50.92
65707;SHT31;52423;43.512;5.220;2022-08-21T07:46:39;24.39;49.66
65707;SHT31;52423;43.512;5.220;2022-08-21T07:49:05;24.52;50.71
65707;SHT31;52423;43.512;5.220;2022-08-21T07:51:31;24.69;49.68
65707;SHT31;52423;43.512;5.220;2022-08-21T07:53:59;24.67;49.15
65707;SHT31;52423;43.512;5.220;2022-08-21T07:56:26;24.64;49.22
65707;SHT31;52423;43.512;5.220;2022-08-21T07:58:52;24.70;50.00
65707;SHT31;52423;43.512;5.220;2022-08-21T08:01:19;24.80;49.21
65707;SHT31;52423;43.512;5.220;2022-08-21T08:03:45;24.80;49.72
65707;SHT31;52423;43.512;5.220;2022-08-21T08:06:11;24.87;48.76
65707;SHT31;52423;43.512;5.220;2022-08-21T08:08:38;24.95;48.67
65707;SHT31;52423;43.512;5.220;2022-08-21T08:11:05;24.87;48.94
65707;SHT31;52423;43.512;5.220;2022-08-21T08:13:30;24.88;48.50
65707;SHT31;52423;43.512;5.220;2022-08-21T08:15:56;25.00;48.71
65707;SHT31;52423;43.512;5.220;2022-08-21T08:18:22;25.18;48.85
65707;SHT31;52423;43.512;5.220;2022-08-21T08:20:48;25.15;47.55
65707;SHT31;52423;43.512;5.220;2022-08-21T08:23:14;25.31;48.43
65707;SHT31;52423;43.512;5.220;2022-08-21T08:25:40;25.42;47.13
65707;SHT31;52423;43.512;5.220;2022-08-21T08:28:06;25.59;46.72
65707;SHT31;52423;43.512;5.220;2022-08-21T08:30:32;25.65;47.27
65707;SHT31;52423;43.512;5.220;2022-08-21T08:32:58;25.85;47.50
65707;SHT31;52423;43.512;5.220;2022-08-21T08:35:25;25.85;46.22
65707;SHT31;52423;43.512;5.220;2022-08-21T08:37:52;25.89;46.79
65707;SHT31;52423;43.512;5.220;2022-08-21T08:40:24;26.17;45.88
65707;SHT31;52423;43.512;5.220;2022-08-21T08:42:50;26.16;44.97
65707;SHT31;52423;43.512;5.220;2022-08-21T08:45:19;26.30;46.34
65707;SHT31;52423;43.512;5.220;2022-08-21T08:48:08;26.37;45.41
65707;SHT31;52423;43.512;5.220;2022-08-21T08:50:39;26.32;45.38
65707;SHT31;52423;43.512;5.220;2022-08-21T08:53:06;26.37;46.30
65707;SHT31;52423;43.512;5.220;2022-08-21T08:55:36;26.61;45.79
65707;SHT31;52423;43.512;5.220;2022-08-21T08:58:03;26.64;44.58
65707;SHT31;52423;43.512;5.220;2022-08-21T09:00:29;26.73;44.86
65707;SHT31;52423;43.512;5.220;2022-08-21T09:02:58;26.80;44.64
65707;SHT31;52423;43.512;5.220;2022-08-21T09:05:26;26.84;44.10
65707;SHT31;52423;43.512;5.220;2022-08-21T09:08:17;26.88;44.88
65707;SHT31;52423;43.512;5.220;2022-08-21T09:27:09;27.22;43.12
65707;SHT31;52423;43.512;5.220;2022-08-21T09:29:38;27.28;42.39
65707;SHT31;52423;43.512;5.220;2022-08-21T09:32:18;27.45;43.27
65707;SHT31;52423;43.512;5.220;2022-08-21T09:35:04;27.41;41.97
65707;SHT31;52423;43.512;5.220;2022-08-21T09:37:33;27.50;42.97
65707;SHT31;52423;43.512;5.220;2022-08-21T09:40:00;27.96;43.78
65707;SHT31;52423;43.512;5.220;2022-08-21T09:42:31;28.05;42.79
65707;SHT31;52423;43.512;5.220;2022-08-21T09:45:10;28.07;42.40
65707;SHT31;52423;43.512;5.220;2022-08-21T09:47:37;27.90;42.52
65707;SHT31;52423;43.512;5.220;2022-08-21T09:50:13;28.18;41.29
65707;SHT31;52423;43.512;5.220;2022-08-21T09:52:48;28.14;41.11
65707;SHT31;52423;43.512;5.220;2022-08-21T09:55:18;28.17;41.81
65707;SHT31;52423;43.512;5.220;2022-08-21T09:58:04;28.45;42.40
65707;SHT31;52423;43.512;5.220;2022-08-21T10:00:34;28.41;41.14
65707;SHT31;52423;43.512;5.220;2022-08-21T10:03:18;28.40;41.92
65707;SHT31;52423;43.512;5.220;2022-08-21T10:06:01;28.32;41.04
65707;SHT31;52423;43.512;5.220;2022-08-21T10:08:31;28.54;40.89
65707;SHT31;52423;43.512;5.220;2022-08-21T10:11:13;28.56;40.67
65707;SHT31;52423;43.512;5.220;2022-08-21T10:16:55;28.82;40.35
65707;SHT31;52423;43.512;5.220;2022-08-21T10:22:56;28.98;40.51
65707;SHT31;52423;43.512;5.220;2022-08-21T10:25:37;29.03;39.29
65707;SHT31;52423;43.512;5.220;2022-08-21T10:38:48;29.72;39.69
65707;SHT31;52423;43.512;5.220;2022-08-21T10:44:17;29.71;39.25
65707;SHT31;52423;43.512;5.220;2022-08-21T10:47:10;30.01;39.27
65707;SHT31;52423;43.512;5.220;2022-08-21T10:55:08;30.13;38.39
65707;SHT31;52423;43.512;5.220;2022-08-21T10:57:51;30.53;38.69
65707;SHT31;52423;43.512;5.220;2022-08-21T11:05:55;30.35;38.22
65707;SHT31;52423;43.512;5.220;2022-08-21T11:08:29;30.23;38.31
65707;SHT31;52423;43.512;5.220;2022-08-21T11:11:12;30.13;38.27
65707;SHT31;52423;43.512;5.220;2022-08-21T11:13:44;30.37;38.09
65707;SHT31;52423;43.512;5.220;2022-08-21T11:18:47;30.05;38.46
65707;SHT31;52423;43.512;5.220;2022-08-21T11:29:34;30.28;36.96
65707;SHT31;52423;43.512;5.220;2022-08-21T11:34:58;30.25;36.91
65707;SHT31;52423;43.512;5.220;2022-08-21T11:37:36;30.42;36.66
65707;SHT31;52423;43.512;5.220;2022-08-21T11:40:16;30.53;36.35
65707;SHT31;52423;43.512;5.220;2022-08-21T11:42:56;30.53;36.86
65707;SHT31;52423;43.512;5.220;2022-08-21T11:49:00;30.70;35.76
65707;SHT31;52423;43.512;5.220;2022-08-21T11:51:36;30.84;35.16
65707;SHT31;52423;43.512;5.220;2022-08-21T11:57:06;30.49;35.33
65707;SHT31;52423;43.512;5.220;2022-08-21T11:59:43;30.55;34.89
65707;SHT31;52423;43.512;5.220;2022-08-21T12:02:14;30.55;35.62
65707;SHT31;52423;43.512;5.220;2022-08-21T12:04:47;30.64;36.21
65707;SHT31;52423;43.512;5.220;2022-08-21T12:07:17;30.88;35.27
65707;SHT31;52423;43.512;5.220;2022-08-21T12:09:56;31.06;35.41
65707;SHT31;52423;43.512;5.220;2022-08-21T12:12:31;31.04;34.51
65707;SHT31;52423;43.512;5.220;2022-08-21T12:18:05;30.76;34.17
65707;SHT31;52423;43.512;5.220;2022-08-21T12:23:17;30.53;35.32
65707;SHT31;52423;43.512;5.220;2022-08-21T12:28:28;30.76;34.51
65707;SHT31;52423;43.512;5.220;2022-08-21T12:30:55;30.79;34.65
65707;SHT31;52423;43.512;5.220;2022-08-21T12:33:28;31.00;34.38
65707;SHT31;52423;43.512;5.220;2022-08-21T12:36:10;31.01;34.19
65707;SHT31;52423;43.512;5.220;2022-08-21T12:41:30;31.22;34.29
65707;SHT31;52423;43.512;5.220;2022-08-21T12:44:02;30.81;33.74
65707;SHT31;52423;43.512;5.220;2022-08-21T12:46:34;30.74;33.93
65707;SHT31;52423;43.512;5.220;2022-08-21T12:49:18;30.35;34.17
65707;SHT31;52423;43.512;5.220;2022-08-21T12:52:01;30.25;34.40
65707;SHT31;52423;43.512;5.220;2022-08-21T12:54:30;30.33;33.91
65707;SHT31;52423;43.512;5.220;2022-08-21T12:56:59;30.53;33.64
65707;SHT31;52423;43.512;5.220;2022-08-21T12:59:25;30.70;33.42
65707;SHT31;52423;43.512;5.220;2022-08-21T13:01:52;30.66;33.73
65707;SHT31;52423;43.512;5.220;2022-08-21T13:04:35;30.70;33.54
65707;SHT31;52423;43.512;5.220;2022-08-21T13:07:04;30.46;33.28
65707;SHT31;52423;43.512;5.220;2022-08-21T13:09:31;30.79;33.57
65707;SHT31;52423;43.512;5.220;2022-08-21T13:11:57;30.94;32.41
65707;SHT31;52423;43.512;5.220;2022-08-21T13:14:39;31.21;30.54
65707;SHT31;52423;43.512;5.220;2022-08-21T13:17:06;31.12;30.70
65707;SHT31;52423;43.512;5.220;2022-08-21T13:19:33;31.18;31.79
65707;SHT31;52423;43.512;5.220;2022-08-21T13:22:00;31.24;31.66
65707;SHT31;52423;43.512;5.220;2022-08-21T13:24:35;30.88;31.94
65707;SHT31;52423;43.512;5.220;2022-08-21T13:27:02;31.10;32.44
65707;SHT31;52423;43.512;5.220;2022-08-21T13:29:31;31.08;32.41
65707;SHT31;52423;43.512;5.220;2022-08-21T13:32:06;30.97;30.73
65707;SHT31;52423;43.512;5.220;2022-08-21T13:34:37;30.91;30.18
65707;SHT31;52423;43.512;5.220;2022-08-21T13:37:08;31.20;29.66
65707;SHT31;52423;43.512;5.220;2022-08-21T13:39:34;31.38;28.66
65707;SHT31;52423;43.512;5.220;2022-08-21T13:42:02;31.27;28.42
65707;SHT31;52423;43.512;5.220;2022-08-21T13:44:43;31.27;28.09
65707;SHT31;52423;43.512;5.220;2022-08-21T13:47:10;31.34;28.30
65707;SHT31;52423;43.512;5.220;2022-08-21T13:49:40;31.46;27.51
65707;SHT31;52423;43.512;5.220;2022-08-21T13:52:25;31.25;27.19
65707;SHT31;52423;43.512;5.220;2022-08-21T13:54:58;31.24;28.61
65707;SHT31;52423;43.512;5.220;2022-08-21T13:57:33;31.25;27.69
65707;SHT31;52423;43.512;5.220;2022-08-21T14:00:17;31.17;26.74
65707;SHT31;52423;43.512;5.220;2022-08-21T14:02:48;31.22;25.97
65707;SHT31;52423;43.512;5.220;2022-08-21T14:05:29;31.44;26.24
65707;SHT31;52423;43.512;5.220;2022-08-21T14:10:56;31.24;26.42
65707;SHT31;52423;43.512;5.220;2022-08-21T14:13:37;30.84;25.15
65707;SHT31;52423;43.512;5.220;2022-08-21T14:16:11;30.73;24.07
65707;SHT31;52423;43.512;5.220;2022-08-21T14:18:49;30.46;24.74
65707;SHT31;52423;43.512;5.220;2022-08-21T14:21:28;30.40;24.40
65707;SHT31;52423;43.512;5.220;2022-08-21T14:26:42;30.28;23.46
65707;SHT31;52423;43.512;5.220;2022-08-21T14:29:09;30.32;24.11
65707;SHT31;52423;43.512;5.220;2022-08-21T14:31:36;30.33;24.82
65707;SHT31;52423;43.512;5.220;2022-08-21T14:34:01;30.16;26.05
65707;SHT31;52423;43.512;5.220;2022-08-21T14:36:27;30.02;26.33
65707;SHT31;52423;43.512;5.220;2022-08-21T14:38:53;30.12;25.54
65707;SHT31;52423;43.512;5.220;2022-08-21T14:41:22;30.11;25.99
65707;SHT31;52423;43.512;5.220;2022-08-21T14:43:49;30.23;25.43
65707;SHT31;52423;43.512;5.220;2022-08-21T14:46:25;30.08;25.98
65707;SHT31;52423;43.512;5.220;2022-08-21T14:48:52;30.00;26.02
65707;SHT31;52423;43.512;5.220;2022-08-21T14:51:18;29.92;27.32
65707;SHT31;52423;43.512;5.220;2022-08-21T14:53:43;29.86;27.45
65707;SHT31;52423;43.512;5.220;2022-08-21T14:56:10;29.81;27.65
65707;SHT31;52423;43.512;5.220;2022-08-21T14:58:39;29.78;27.68
65707;SHT31;52423;43.512;5.220;2022-08-21T15:01:07;29.63;27.82
65707;SHT31;52423;43.512;5.220;2022-08-21T15:03:34;29.61;27.64
65707;SHT31;52423;43.512;5.220;2022-08-21T15:06:02;29.68;26.65
65707;SHT31;52423;43.512;5.220;2022-08-21T15:08:28;29.61;26.97
65707;SHT31;52423;43.512;5.220;2022-08-21T15:10:55;29.63;27.76
65707;SHT31;52423;43.512;5.220;2022-08-21T15:13:21;29.68;27.72
65707;SHT31;52423;43.512;5.220;2022-08-21T15:15:50;29.75;28.18
65707;SHT31;52423;43.512;5.220;2022-08-21T15:18:22;29.88;28.60
65707;SHT31;52423;43.512;5.220;2022-08-21T15:20:49;30.04;28.13
65707;SHT31;52423;43.512;5.220;2022-08-21T15:23:15;30.18;29.63
65707;SHT31;52423;43.512;5.220;2022-08-21T15:25:43;30.26;27.06
65707;SHT31;52423;43.512;5.220;2022-08-21T15:28:11;30.06;28.15
65707;SHT31;52423;43.512;5.220;2022-08-21T15:30:39;29.97;27.13
65707;SHT31;52423;43.512;5.220;2022-08-21T15:33:05;29.85;27.47
65707;SHT31;52423;43.512;5.220;2022-08-21T15:35:31;29.77;27.49
65707;SHT31;52423;43.512;5.220;2022-08-21T15:37:57;29.54;29.31
65707;SHT31;52423;43.512;5.220;2022-08-21T15:40:23;29.40;29.60
65707;SHT31;52423;43.512;5.220;2022-08-21T15:42:57;29.22;29.42
65707;SHT31;52423;43.512;5.220;2022-08-21T15:45:24;29.17;28.90
65707;SHT31;52423;43.512;5.220;2022-08-21T15:47:50;29.09;28.01
65707;SHT31;52423;43.512;5.220;2022-08-21T15:50:16;29.14;25.90
65707;SHT31;52423;43.512;5.220;2022-08-21T15:52:42;29.04;26.16
65707;SHT31;52423;43.512;5.220;2022-08-21T15:55:09;28.93;25.70
65707;SHT31;52423;43.512;5.220;2022-08-21T15:57:36;28.92;24.81
65707;SHT31;52423;43.512;5.220;2022-08-21T16:00:06;28.95;25.76
65707;SHT31;52423;43.512;5.220;2022-08-21T16:02:37;28.92;25.98
65707;SHT31;52423;43.512;5.220;2022-08-21T16:05:04;28.86;26.12
65707;SHT31;52423;43.512;5.220;2022-08-21T16:07:30;28.86;27.29
65707;SHT31;52423;43.512;5.220;2022-08-21T16:09:55;28.78;25.90
65707;SHT31;52423;43.512;5.220;2022-08-21T16:12:24;28.75;25.67
65707;SHT31;52423;43.512;5.220;2022-08-21T16:14:52;28.72;25.98
65707;SHT31;52423;43.512;5.220;2022-08-21T16:17:19;28.66;27.28
65707;SHT31;52423;43.512;5.220;2022-08-21T16:19:46;28.68;27.56
65707;SHT31;52423;43.512;5.220;2022-08-21T16:22:11;28.79;26.78
65707;SHT31;52423;43.512;5.220;2022-08-21T16:24:37;28.69;27.64
65707;SHT31;52423;43.512;5.220;2022-08-21T16:27:03;28.78;27.18
65707;SHT31;52423;43.512;5.220;2022-08-21T16:29:34;28.82;27.51
65707;SHT31;52423;43.512;5.220;2022-08-21T16:32:01;28.80;27.23
65707;SHT31;52423;43.512;5.220;2022-08-21T16:34:27;28.75;28.73
65707;SHT31;52423;43.512;5.220;2022-08-21T16:36:53;28.75;28.38
65707;SHT31;52423;43.512;5.220;2022-08-21T16:39:19;28.89;28.55
65707;SHT31;52423;43.512;5.220;2022-08-21T16:41:47;28.83;28.89
65707;SHT31;52423;43.512;5.220;2022-08-21T16:44:14;28.99;26.50
65707;SHT31;52423;43.512;5.220;2022-08-21T16:46:40;28.96;26.72
65707;SHT31;52423;43.512;5.220;2022-08-21T16:49:06;28.98;26.85
65707;SHT31;52423;43.512;5.220;2022-08-21T16:51:33;28.91;27.39
65707;SHT31;52423;43.512;5.220;2022-08-21T16:53:59;28.85;28.30
65707;SHT31;52423;43.512;5.220;2022-08-21T16:56:25;28.79;29.12
65707;SHT31;52423;43.512;5.220;2022-08-21T16:58:52;28.76;29.28
65707;SHT31;52423;43.512;5.220;2022-08-21T17:01:21;28.73;29.00
65707;SHT31;52423;43.512;5.220;2022-08-21T17:03:49;28.63;29.77